Time;durP1;ratioP1;P1;durP2;ratioP2;P2;SDS_P1;SDS_P2;PMS_P1;PMS_P2;Temp;Humidity;BMP_temperature;BMP_pressure;BME280_temperature;BME280_humidity;BME280_pressure;Samples;Min_cycle;Max_cycle;Signal;HPM_P1;HPM_P2
2022/01/27 00:00:16;;;;;;;30.33;13.35;;;;;;;4.80;100.00;101622.97;4894798;29;20200;-41
2022/01/27 00:05:24;;;;;;;29.83;13.82;;;;;;;4.81;100.00;101630.03;4894823;29;20168;-40
2022/01/27 00:13:16;;;;;;;27.80;14.02;;;;;;;4.79;100.00;101608.81;4895092;29;20181;-41
2022/01/27 00:15:44;;;;;;;26.63;14.65;;;;;;;4.80;100.00;101615.88;4894822;29;20685;-44
2022/01/27 00:18:16;;;;;;;39.72;15.45;;;;;;;4.85;100.00;101607.91;4894570;29;20192;-42
2022/01/27 00:20:42;;;;;;;32.40;17.13;;;;;;;4.82;100.00;101592.88;4894745;29;20795;-40
2022/01/27 00:23:08;;;;;;;28.35;15.30;;;;;;;4.86;100.00;101572.50;4894127;29;20264;-42
2022/01/27 00:25:34;;;;;;;29.05;16.80;;;;;;;4.86;100.00;101576.03;4898404;29;20196;-40
2022/01/27 00:27:59;;;;;;;34.33;16.85;;;;;;;4.87;100.00;101598.16;4896967;29;20210;-42
2022/01/27 00:30:26;;;;;;;32.08;17.27;;;;;;;4.90;100.00;101574.28;4896933;29;20558;-42
2022/01/27 00:32:51;;;;;;;26.20;15.95;;;;;;;4.91;100.00;101558.31;4898022;29;20172;-39
2022/01/27 00:35:17;;;;;;;34.28;15.95;;;;;;;4.90;100.00;101571.63;4897990;29;20697;-44
2022/01/27 00:37:42;;;;;;;28.60;15.50;;;;;;;4.98;100.00;101568.91;4898260;29;20200;-42
2022/01/27 00:40:11;;;;;;;31.85;16.00;;;;;;;4.94;100.00;101576.00;4898185;29;20219;-42
2022/01/27 00:42:38;;;;;;;27.88;16.00;;;;;;;4.99;100.00;101557.44;4898372;29;20208;-42
2022/01/27 00:45:04;;;;;;;32.40;16.02;;;;;;;5.02;100.00;101549.44;4897408;29;20240;-41
2022/01/27 00:47:30;;;;;;;31.92;16.63;;;;;;;5.04;100.00;101542.34;4898241;29;20211;-41
2022/01/27 00:49:55;;;;;;;27.40;15.48;;;;;;;5.04;100.00;101529.06;4898338;29;20169;-43
2022/01/27 00:52:28;;;;;;;28.17;15.43;;;;;;;5.07;100.00;101529.03;4898407;29;20168;-42
2022/01/27 00:54:54;;;;;;;27.42;15.70;;;;;;;5.10;100.00;101524.63;4897809;29;20177;-41
2022/01/27 01:00:07;;;;;;;28.75;14.82;;;;;;;5.14;100.00;101501.59;4898216;29;20251;-40
2022/01/27 01:02:50;;;;;;;28.88;15.30;;;;;;;5.11;100.00;101505.13;4897755;29;20302;-39
2022/01/27 01:07:48;;;;;;;28.95;15.43;;;;;;;5.07;100.00;101521.06;4897644;29;20219;-41
2022/01/27 01:11:04;;;;;;;30.73;16.08;;;;;;;5.09;100.00;101512.22;4897673;29;20180;-40
2022/01/27 01:15:50;;;;;;;32.17;15.77;;;;;;;5.10;100.00;101490.09;4897536;29;20224;-40
2022/01/27 01:18:47;;;;;;;30.45;16.30;;;;;;;5.18;100.00;101500.66;4897444;29;20558;-40
2022/01/27 01:34:30;;;;;;;32.42;17.50;;;;;;;5.05;100.00;101461.78;4896981;29;20184;-41
2022/01/27 01:37:00;;;;;;;36.47;18.33;;;;;;;5.07;100.00;101460.00;4896864;29;20686;-39
2022/01/27 01:39:29;;;;;;;33.67;18.65;;;;;;;5.15;100.00;101464.38;4897238;29;20185;-41
2022/01/27 01:41:55;;;;;;;42.72;18.40;;;;;;;5.08;100.00;101456.47;4897027;29;20169;-43
2022/01/27 01:44:21;;;;;;;38.72;18.83;;;;;;;5.07;100.00;101438.75;4897298;29;20204;-43
2022/01/27 01:46:47;;;;;;;40.03;18.63;;;;;;;5.09;100.00;101421.91;4897199;29;20189;-40
2022/01/27 01:49:13;;;;;;;36.33;17.85;;;;;;;5.10;100.00;101422.81;4896867;29;20229;-41
2022/01/27 01:51:40;;;;;;;33.15;18.70;;;;;;;5.09;100.00;101413.94;4896891;29;20173;-39
2022/01/27 01:54:07;;;;;;;39.10;18.50;;;;;;;5.16;100.00;101420.13;4896560;29;20173;-40
2022/01/27 01:56:35;;;;;;;32.33;17.88;;;;;;;5.10;100.00;101410.41;4897022;29;20204;-41
2022/01/27 01:59:01;;;;;;;36.90;17.88;;;;;;;5.09;100.00;101400.66;4896800;29;20240;-41
2022/01/27 02:01:26;;;;;;;34.45;17.15;;;;;;;5.16;100.00;101412.16;4897049;29;20658;-41
2022/01/27 02:03:52;;;;;;;36.28;18.13;;;;;;;5.08;100.00;101417.50;4896677;29;20173;-41
2022/01/27 02:06:25;;;;;;;39.53;17.52;;;;;;;5.08;100.00;101406.88;4896896;29;20200;-40
2022/01/27 02:19:53;;;;;;;40.38;18.42;;;;;;;5.07;100.00;101402.47;4896242;29;20232;-39
2022/01/27 02:22:20;;;;;;;36.42;17.92;;;;;;;5.06;100.00;101403.34;4896220;29;20493;-42
2022/01/27 02:24:46;;;;;;;30.73;17.00;;;;;;;5.00;100.00;101387.44;4896071;29;20565;-40
2022/01/27 02:27:14;;;;;;;31.98;16.55;;;;;;;5.02;100.00;101371.50;4896276;29;20213;-39
2022/01/27 02:29:40;;;;;;;42.60;16.52;;;;;;;4.91;100.00;101355.63;4896234;29;20660;-42
2022/01/27 02:32:07;;;;;;;29.08;16.13;;;;;;;4.93;100.00;101359.16;4896056;29;20173;-39
2022/01/27 02:34:33;;;;;;;34.00;17.05;;;;;;;4.90;100.00;101365.38;4895859;29;20169;-42
2022/01/27 02:36:58;;;;;;;32.70;16.40;;;;;;;4.93;100.00;101360.03;4896107;29;20248;-39
2022/01/27 02:39:24;;;;;;;38.50;17.60;;;;;;;4.84;100.00;101357.47;4895596;29;20690;-43
2022/01/27 02:41:50;;;;;;;32.75;17.08;;;;;;;4.83;100.00;101337.13;4896322;29;20209;-43
2022/01/27 02:44:20;;;;;;;27.23;14.35;;;;;;;4.79;100.00;101340.69;4895940;29;20553;-41
2022/01/27 02:46:49;;;;;;;27.75;15.18;;;;;;;4.75;100.00;101345.13;4895475;29;20295;-42
2022/01/27 02:49:15;;;;;;;29.75;15.43;;;;;;;4.70;100.00;101348.69;4895888;29;20559;-40
2022/01/27 02:51:40;;;;;;;27.05;15.35;;;;;;;4.61;100.00;101348.72;4895823;29;20176;-41
2022/01/27 02:54:05;;;;;;;28.75;14.73;;;;;;;4.56;100.00;101331.97;4895666;29;20233;-40
2022/01/27 02:56:32;;;;;;;28.35;14.25;;;;;;;4.54;100.00;101327.53;4895339;29;20645;-41
2022/01/27 02:58:57;;;;;;;28.10;15.52;;;;;;;4.56;100.00;101322.22;4887260;29;20686;-42
2022/01/27 03:01:23;;;;;;;23.75;13.48;;;;;;;4.59;100.00;101323.97;4893876;29;20200;-40
2022/01/27 03:03:49;;;;;;;26.05;13.77;;;;;;;4.57;100.00;101339.03;4913771;29;20172;-40
2022/01/27 03:06:15;;;;;;;26.65;14.05;;;;;;;4.58;100.00;101330.19;4914417;29;20310;-41
2022/01/27 03:08:41;;;;;;;22.65;13.30;;;;;;;4.54;100.00;101327.53;4914405;29;20492;-41
2022/01/27 03:11:11;;;;;;;22.65;12.52;;;;;;;4.48;100.00;101309.03;4914843;29;20165;-41
2022/01/27 03:13:36;;;;;;;23.58;13.85;;;;;;;4.46;100.00;101297.53;4913956;29;20168;-41
2022/01/27 03:16:05;;;;;;;21.67;13.35;;;;;;;4.46;100.00;101305.50;4913949;29;20175;-39
2022/01/27 03:18:30;;;;;;;27.15;14.13;;;;;;;4.42;100.00;101301.09;4913731;29;20165;-41
2022/01/27 03:20:56;;;;;;;21.65;12.75;;;;;;;4.44;100.00;101309.00;4914096;29;20661;-41
2022/01/27 03:23:21;;;;;;;21.45;12.93;;;;;;;4.44;100.00;101275.44;4913839;29;20184;-41
2022/01/27 03:25:48;;;;;;;18.25;12.25;;;;;;;4.42;100.00;101295.78;4913642;29;20179;-40
2022/01/27 03:28:14;;;;;;;23.60;12.60;;;;;;;4.44;100.00;101283.38;4914243;29;20192;-42
2022/01/27 03:30:39;;;;;;;17.70;11.98;;;;;;;4.41;100.00;101278.06;4913758;29;20169;-40
2022/01/27 03:33:04;;;;;;;17.67;12.07;;;;;;;4.44;100.00;101261.25;4913934;29;20541;-41
2022/01/27 03:35:30;;;;;;;21.10;12.70;;;;;;;4.46;100.00;101262.13;4913695;29;20227;-42
2022/01/27 03:37:55;;;;;;;19.73;12.65;;;;;;;4.44;100.00;101258.59;4913944;29;20223;-43
2022/01/27 03:40:21;;;;;;;20.67;13.57;;;;;;;4.53;100.00;101259.44;4912925;29;20222;-41
2022/01/27 03:42:55;;;;;;;22.77;13.60;;;;;;;4.52;100.00;101252.34;4912770;29;20184;-42
2022/01/27 03:45:20;;;;;;;20.00;13.18;;;;;;;4.59;100.00;101260.28;4913905;29;20171;-43
2022/01/27 03:47:46;;;;;;;22.33;14.48;;;;;;;4.52;100.00;101254.13;4913770;29;20192;-41
2022/01/27 03:50:11;;;;;;;25.52;15.25;;;;;;;4.53;100.00;101248.84;4914464;29;20156;-40
2022/01/27 03:52:37;;;;;;;27.95;16.35;;;;;;;4.54;100.00;101249.72;4913850;29;20180;-41
2022/01/27 03:55:02;;;;;;;31.10;16.75;;;;;;;4.59;100.00;101245.28;4913795;29;20688;-42
2022/01/27 03:57:28;;;;;;;28.73;17.27;;;;;;;4.54;100.00;101244.41;4914088;29;20274;-41
2022/01/27 03:59:53;;;;;;;33.13;17.38;;;;;;;4.57;100.00;101235.53;4913779;29;20275;-40
2022/01/27 04:02:18;;;;;;;28.77;17.45;;;;;;;4.56;100.00;101228.47;4914062;29;20180;-44
2022/01/27 04:04:44;;;;;;;32.00;18.23;;;;;;;4.54;100.00;101242.63;4927429;29;20188;-44
2022/01/27 04:07:09;;;;;;;37.17;17.23;;;;;;;4.53;100.00;101227.59;4913698;29;20212;-47
2022/01/27 04:09:35;;;;;;;28.85;16.83;;;;;;;4.61;100.00;101211.59;4927794;29;20332;-46
2022/01/27 04:12:00;;;;;;;30.85;16.67;;;;;;;4.52;100.00;101217.00;4913700;29;20535;-43
2022/01/27 04:14:26;;;;;;;27.73;15.63;;;;;;;4.55;100.00;101219.66;4912953;29;20768;-46
2022/01/27 04:16:51;;;;;;;31.77;15.93;;;;;;;4.52;100.00;101219.66;4913252;29;20214;-46
2022/01/27 04:19:17;;;;;;;27.83;15.40;;;;;;;4.48;100.00;101205.53;4913428;29;20262;-47
2022/01/27 04:21:42;;;;;;;27.27;14.80;;;;;;;4.49;100.00;101194.03;4913212;29;20200;-46
2022/01/27 04:24:10;;;;;;;29.48;14.50;;;;;;;4.46;100.00;101187.84;4913178;29;20192;-45
2022/01/27 04:26:45;;;;;;;25.60;13.38;;;;;;;4.47;100.00;101193.16;4913195;29;20191;-47
2022/01/27 04:29:11;;;;;;;21.42;13.10;;;;;;;4.46;100.00;101188.75;4913612;29;20215;-44
2022/01/27 04:31:39;;;;;;;25.58;13.52;;;;;;;4.43;100.00;101170.19;4912928;29;20191;-45
2022/01/27 04:34:05;;;;;;;24.45;13.60;;;;;;;4.44;100.00;101173.72;4913031;29;20180;-45
2022/01/27 04:36:32;;;;;;;22.75;12.25;;;;;;;4.50;100.00;101181.63;4913407;29;20305;-46
2022/01/27 04:39:16;;;;;;;24.65;11.90;;;;;;;4.50;100.00;101163.97;4912901;29;20212;-44
2022/01/27 04:41:57;;;;;;;24.27;12.57;;;;;;;4.48;100.00;101176.34;4913151;29;20208;-43
2022/01/27 04:44:38;;;;;;;21.50;12.00;;;;;;;4.42;100.00;101156.94;4912572;29;20622;-45
2022/01/27 04:47:13;;;;;;;25.08;12.48;;;;;;;4.43;100.00;101156.91;4912164;29;20246;-44
2022/01/27 04:49:38;;;;;;;26.00;13.13;;;;;;;4.41;100.00;101160.47;4913229;29;20259;-46
2022/01/27 04:52:04;;;;;;;25.35;13.18;;;;;;;4.42;100.00;101152.53;4913211;29;20192;-44
2022/01/27 04:54:52;;;;;;;20.70;11.80;;;;;;;4.42;100.00;101159.59;4911944;29;20736;-46
2022/01/27 04:57:16;;;;;;;26.33;11.82;;;;;;;4.40;100.00;101162.25;4913161;29;20224;-46
2022/01/27 04:59:43;;;;;;;22.85;11.80;;;;;;;4.44;100.00;101153.38;4891207;29;20192;-47
2022/01/27 05:02:24;;;;;;;21.00;12.23;;;;;;;4.42;100.00;101151.66;4908264;29;20267;-47
2022/01/27 05:04:50;;;;;;;20.95;11.30;;;;;;;4.39;100.00;101152.53;4912269;29;20589;-46
2022/01/27 05:07:16;;;;;;;19.50;10.80;;;;;;;4.41;100.00;101140.13;4913222;29;20384;-47
2022/01/27 05:09:51;;;;;;;19.90;10.80;;;;;;;4.45;100.00;101138.34;4913480;29;20164;-46
2022/01/27 05:12:27;;;;;;;18.95;10.27;;;;;;;4.41;100.00;101121.56;4915100;29;20187;-45
2022/01/27 05:14:53;;;;;;;16.95;10.07;;;;;;;4.47;100.00;101134.78;4916433;29;20172;-45
2022/01/27 05:17:19;;;;;;;20.55;10.75;;;;;;;4.41;100.00;101105.63;4915765;29;20294;-47
2022/01/27 05:19:47;;;;;;;15.82;9.63;;;;;;;4.42;100.00;101112.72;4915090;29;20302;-46
2022/01/27 05:22:13;;;;;;;17.08;10.45;;;;;;;4.44;100.00;101124.22;4916028;29;20199;-45
2022/01/27 05:24:39;;;;;;;17.38;10.88;;;;;;;4.44;100.00;101116.25;4915863;29;20202;-45
2022/01/27 05:27:04;;;;;;;17.05;10.02;;;;;;;4.43;100.00;101105.63;4916186;29;20263;-47
2022/01/27 05:29:30;;;;;;;18.40;10.82;;;;;;;4.44;100.00;101100.34;4915919;29;20290;-47
2022/01/27 05:31:55;;;;;;;19.40;11.05;;;;;;;4.40;100.00;101092.41;4916131;29;20195;-48
2022/01/27 05:34:21;;;;;;;18.83;10.60;;;;;;;4.45;100.00;101096.75;4915514;29;20176;-49
2022/01/27 05:36:46;;;;;;;16.75;10.68;;;;;;;4.43;100.00;101079.97;4916223;29;20573;-48
2022/01/27 05:39:12;;;;;;;18.63;10.82;;;;;;;4.47;100.00;101087.03;4915792;29;20684;-41
2022/01/27 05:41:37;;;;;;;21.30;10.70;;;;;;;4.43;100.00;101082.63;4916069;29;20218;-42
2022/01/27 05:44:03;;;;;;;14.77;10.05;;;;;;;4.50;100.00;101089.66;4915485;29;20674;-43
2022/01/27 05:46:29;;;;;;;24.77;12.10;;;;;;;4.45;100.00;101094.13;4930131;29;20243;-41
2022/01/27 05:48:54;;;;;;;20.10;10.48;;;;;;;4.46;100.00;101071.09;4915981;29;20176;-45
2022/01/27 05:51:20;;;;;;;20.00;12.00;;;;;;;4.49;100.00;101081.72;4915783;29;20622;-44
2022/01/27 05:53:46;;;;;;;22.23;12.73;;;;;;;4.51;100.00;101067.53;4915425;29;20227;-41
2022/01/27 05:56:12;;;;;;;20.33;11.85;;;;;;;4.51;100.00;101058.69;4915608;29;20179;-44
2022/01/27 05:58:37;;;;;;;24.23;11.77;;;;;;;4.57;100.00;101058.66;4905303;29;20181;-43
2022/01/27 06:01:03;;;;;;;23.48;13.77;;;;;;;4.51;100.00;101072.84;4896248;29;20264;-43
2022/01/27 06:03:28;;;;;;;23.52;13.50;;;;;;;4.56;100.00;101045.38;4896427;29;20184;-42
2022/01/27 06:05:54;;;;;;;24.60;14.05;;;;;;;4.54;100.00;101040.97;4896860;29;20731;-44
2022/01/27 06:08:19;;;;;;;26.73;14.07;;;;;;;4.62;100.00;101046.19;4896368;29;20215;-42
2022/01/27 06:10:45;;;;;;;29.08;13.82;;;;;;;4.59;100.00;101045.34;4896702;29;20180;-41
2022/01/27 06:13:10;;;;;;;25.08;14.15;;;;;;;4.61;100.00;101025.84;4896518;29;20200;-42
2022/01/27 06:15:35;;;;;;;28.13;14.98;;;;;;;4.57;100.00;101025.91;4895974;29;20181;-43
2022/01/27 06:18:01;;;;;;;23.10;13.95;;;;;;;4.64;100.00;101024.97;4896339;29;20193;-41
2022/01/27 06:20:29;;;;;;;29.27;14.85;;;;;;;4.64;100.00;101017.88;4896335;29;20599;-42
2022/01/27 06:22:58;;;;;;;22.17;13.88;;;;;;;4.66;100.00;101020.53;4895434;29;20555;-41
2022/01/27 06:25:26;;;;;;;26.52;14.05;;;;;;;4.64;100.00;101030.28;4895748;29;20324;-43
2022/01/27 06:27:52;;;;;;;25.08;14.48;;;;;;;4.68;100.00;101016.03;4896440;29;20618;-42
2022/01/27 06:30:17;;;;;;;24.90;14.63;;;;;;;4.71;100.00;101024.88;4895847;29;20237;-45
2022/01/27 06:32:42;;;;;;;28.23;14.88;;;;;;;4.75;100.00;100999.19;4896327;29;20217;-43
2022/01/27 06:35:08;;;;;;;26.33;14.93;;;;;;;4.75;100.00;101001.84;4895692;29;20207;-41
2022/01/27 06:37:36;;;;;;;31.15;14.85;;;;;;;4.78;100.00;101014.19;4896345;29;20192;-45
2022/01/27 06:40:03;;;;;;;25.23;15.10;;;;;;;4.77;100.00;100999.13;4895676;29;20237;-43
2022/01/27 06:42:29;;;;;;;25.33;14.57;;;;;;;4.85;100.00;101014.09;4896061;29;20197;-44
2022/01/27 06:44:54;;;;;;;29.70;17.70;;;;;;;4.85;100.00;101002.59;4963170;23;20518;-41
2022/01/27 06:47:21;;;;;;;22.05;14.88;;;;;;;4.83;100.00;101005.28;4955339;28;20289;-43
2022/01/27 06:49:47;;;;;;;30.33;15.40;;;;;;;4.85;100.00;101005.25;4947507;29;20194;-44
2022/01/27 06:52:12;;;;;;;26.35;15.30;;;;;;;4.88;100.00;101002.56;4953189;29;20661;-44
2022/01/27 06:54:38;;;;;;;27.73;15.10;;;;;;;4.97;100.00;101005.09;4937515;28;20262;-43
2022/01/27 06:57:05;;;;;;;33.95;16.73;;;;;;;4.94;100.00;100984.78;4933722;29;20695;-41
2022/01/27 06:59:31;;;;;;;40.60;17.67;;;;;;;5.01;100.00;100990.00;4932738;29;20167;-46
2022/01/27 07:01:56;;;;;;;41.75;17.40;;;;;;;4.96;100.00;100984.75;4932334;29;20233;-45
2022/01/27 07:04:22;;;;;;;38.83;18.58;;;;;;;4.97;100.00;100989.19;4933106;29;20225;-46
2022/01/27 07:06:48;;;;;;;35.22;18.90;;;;;;;5.02;100.00;100991.78;4933607;29;20191;-47
2022/01/27 07:09:14;;;;;;;39.35;19.58;;;;;;;5.02;100.00;101005.06;4933779;29;20185;-46
2022/01/27 07:11:39;;;;;;;44.03;19.25;;;;;;;5.05;100.00;100989.06;4933848;29;20543;-45
2022/01/27 07:14:05;;;;;;;36.05;18.50;;;;;;;5.06;100.00;100972.25;4933223;29;20171;-47
2022/01/27 07:16:31;;;;;;;40.38;19.20;;;;;;;5.03;100.00;100974.94;4932506;29;20294;-48
2022/01/27 07:18:56;;;;;;;41.70;18.75;;;;;;;5.14;100.00;100960.63;4932438;29;20210;-47
2022/01/27 07:21:23;;;;;;;41.90;17.17;;;;;;;5.10;100.00;100966.88;4933623;29;20223;-50
2022/01/27 07:23:48;;;;;;;37.55;17.23;;;;;;;5.18;100.00;100965.88;4933082;29;20262;-50
2022/01/27 07:26:14;;;;;;;33.05;17.35;;;;;;;5.18;100.00;100957.91;4933010;29;20277;-46
2022/01/27 07:28:40;;;;;;;31.02;16.48;;;;;;;5.18;100.00;100953.47;4949850;29;20187;-45
2022/01/27 07:31:06;;;;;;;27.77;15.80;;;;;;;5.26;100.00;100964.88;4952070;28;20183;-44
2022/01/27 07:33:31;;;;;;;34.28;15.95;;;;;;;5.29;100.00;100972.81;4931539;29;20672;-49
2022/01/27 07:35:57;;;;;;;27.17;14.35;;;;;;;5.39;100.00;100970.91;4931667;29;20186;-47
2022/01/27 07:38:23;;;;;;;35.92;16.00;;;;;;;5.43;100.00;100958.44;4932286;29;20195;-46
2022/01/27 07:40:50;;;;;;;30.40;15.48;;;;;;;5.33;100.00;100958.56;4932376;29;20191;-46
2022/01/27 07:43:16;;;;;;;33.72;14.27;;;;;;;5.43;100.00;100967.28;4931689;29;20290;-48
2022/01/27 07:45:41;;;;;;;27.52;14.60;;;;;;;5.41;100.00;100968.22;4932498;29;20268;-47
2022/01/27 07:48:07;;;;;;;37.92;14.48;;;;;;;5.37;100.00;100970.03;4932366;29;20207;-46
2022/01/27 07:50:33;;;;;;;34.50;14.05;;;;;;;5.40;100.00;100948.75;4932205;29;20194;-49
2022/01/27 07:52:59;;;;;;;28.52;13.27;;;;;;;5.44;100.00;100946.91;4932569;29;20164;-47
2022/01/27 07:55:26;;;;;;;27.70;12.77;;;;;;;5.48;100.00;100935.34;4932012;29;20198;-46
2022/01/27 07:57:51;;;;;;;27.15;12.43;;;;;;;5.44;100.00;100933.63;4932480;29;20202;-47
2022/01/27 08:00:17;;;;;;;25.98;12.25;;;;;;;5.45;100.00;100948.69;4932874;29;20215;-48
2022/01/27 08:02:43;;;;;;;28.15;12.60;;;;;;;5.47;100.00;100941.56;4932449;29;20175;-48
2022/01/27 08:05:09;;;;;;;34.97;12.75;;;;;;;5.48;100.00;100941.53;4932360;29;20238;-46
2022/01/27 08:07:34;;;;;;;35.88;12.90;;;;;;;5.46;100.00;100945.09;4931494;29;20672;-49
2022/01/27 08:10:00;;;;;;;34.15;13.13;;;;;;;5.48;100.00;100944.19;4932751;29;20667;-44
2022/01/27 08:12:25;;;;;;;26.75;12.07;;;;;;;5.54;100.00;100943.22;4931384;29;20253;-47
2022/01/27 08:14:51;;;;;;;36.95;13.43;;;;;;;5.52;100.00;100942.38;4931278;29;20648;-46
2022/01/27 08:17:17;;;;;;;33.55;12.68;;;;;;;5.57;100.00;100933.44;4932892;29;20550;-47
2022/01/27 08:19:43;;;;;;;35.55;12.68;;;;;;;5.64;100.00;100930.66;4932472;29;20187;-46
2022/01/27 08:22:10;;;;;;;37.65;13.50;;;;;;;5.63;100.00;100939.53;4933140;29;20224;-47
2022/01/27 08:24:36;;;;;;;41.88;12.75;;;;;;;5.61;100.00;100930.72;4932087;29;20176;-48
2022/01/27 08:27:04;;;;;;;40.83;14.38;;;;;;;5.67;100.00;100930.63;4933644;29;20218;-46
2022/01/27 08:29:37;;;;;;;39.97;13.45;;;;;;;5.72;100.00;100929.63;4933183;29;20226;-46
2022/01/27 08:32:05;;;;;;;39.00;12.77;;;;;;;5.80;100.00;100934.81;4932967;29;20239;-47
2022/01/27 08:34:37;;;;;;;38.13;12.90;;;;;;;5.84;100.00;100922.34;4932536;29;20227;-46
2022/01/27 08:37:13;;;;;;;38.90;13.02;;;;;;;5.91;100.00;100930.19;4932885;29;20203;-47
2022/01/27 08:39:39;;;;;;;39.03;12.18;;;;;;;5.88;100.00;100930.25;4932485;29;20163;-46
2022/01/27 08:42:06;;;;;;;38.80;11.82;;;;;;;5.97;100.00;100937.22;4932855;29;20250;-46
2022/01/27 08:44:32;;;;;;;44.88;11.32;;;;;;;5.97;100.00;100938.09;4932531;29;20188;-49
2022/01/27 08:46:58;;;;;;;45.33;11.75;;;;;;;6.01;100.00;100930.94;4936463;29;20199;-45
2022/01/27 08:49:24;;;;;;;42.90;11.25;;;;;;;6.04;100.00;100932.69;4936501;29;20270;-48
2022/01/27 08:51:50;;;;;;;35.22;10.15;;;;;;;6.07;100.00;100930.81;4936259;29;20239;-46
2022/01/27 08:54:15;;;;;;;44.90;10.02;;;;;;;6.22;100.00;100931.47;4936187;29;20258;-45
2022/01/27 08:56:42;;;;;;;44.17;10.80;;;;;;;6.19;100.00;100935.06;4935821;29;20634;-46
2022/01/27 08:59:07;;;;;;;42.35;9.65;;;;;;;6.21;100.00;100930.59;4937219;29;20183;-47
2022/01/27 09:01:32;;;;;;;35.63;8.52;;;;;;;6.28;100.00;100934.88;4935896;29;20221;-48
2022/01/27 09:03:58;;;;;;;35.80;8.68;;;;;;;6.31;100.00;100916.19;4936168;29;20206;-47
2022/01/27 09:06:23;;;;;;;42.50;8.43;;;;;;;6.32;100.00;100933.91;4935765;29;20211;-46
2022/01/27 09:08:50;;;;;;;39.00;7.72;;;;;;;6.37;100.00;100910.75;4935921;29;20661;-47
2022/01/27 09:11:17;;;;;;;39.08;9.18;;;;;;;6.41;100.00;100927.53;4936125;29;20246;-46
2022/01/27 09:13:42;;;;;;;36.53;8.30;;;;;;;6.40;100.00;100926.66;4935453;29;20229;-48
2022/01/27 09:16:09;;;;;;;31.80;7.95;;;;;;;6.39;100.00;100932.03;4935936;29;20207;-47
2022/01/27 09:18:35;;;;;;;27.65;6.93;;;;;;;6.40;100.00;100917.78;4935701;29;20179;-47
2022/01/27 09:21:06;;;;;;;39.58;7.70;;;;;;;6.40;100.00;100921.31;4935648;29;20676;-45
2022/01/27 09:23:31;;;;;;;38.47;7.70;;;;;;;6.54;100.00;100917.53;4935507;29;20171;-46
2022/01/27 09:26:03;;;;;;;29.98;7.35;;;;;;;6.52;100.00;100917.56;4935796;29;20183;-48
2022/01/27 09:28:28;;;;;;;33.63;7.35;;;;;;;6.62;100.00;100910.25;4935728;29;20711;-48
2022/01/27 09:30:54;;;;;;;40.58;6.70;;;;;;;6.63;100.00;100914.69;4935880;29;20259;-48
2022/01/27 09:33:19;;;;;;;35.22;8.02;;;;;;;6.63;100.00;100925.34;4935385;29;20172;-47
2022/01/27 09:35:45;;;;;;;22.40;6.13;;;;;;;6.63;100.00;100935.09;4935228;29;20659;-48
2022/01/27 09:38:11;;;;;;;26.88;6.75;;;;;;;6.74;100.00;100922.44;4935515;29;20203;-45
2022/01/27 09:40:37;;;;;;;31.63;6.28;;;;;;;6.72;100.00;100932.25;4935066;29;20676;-50
2022/01/27 09:43:04;;;;;;;34.92;5.90;;;;;;;6.73;100.00;100926.00;4935476;29;20644;-49
2022/01/27 09:45:35;;;;;;;31.83;5.97;;;;;;;6.69;100.00;100906.56;4935173;29;20187;-49
2022/01/27 09:48:11;;;;;;;36.70;6.18;;;;;;;6.74;100.00;100936.63;4933998;29;20579;-49
2022/01/27 09:50:49;;;;;;;30.02;6.35;;;;;;;6.73;100.00;100912.69;4935063;29;20167;-47
2022/01/27 09:53:15;;;;;;;26.90;5.22;;;;;;;6.85;100.00;100920.44;4935191;29;20780;-46
2022/01/27 09:55:41;;;;;;;30.08;5.80;;;;;;;6.90;100.00;100920.31;4933937;29;20633;-47
2022/01/27 09:58:10;;;;;;;30.13;6.70;;;;;;;6.90;100.00;100931.84;4935272;29;20191;-48
2022/01/27 10:00:36;;;;;;;29.38;6.28;;;;;;;6.90;100.00;100928.31;4934861;29;20706;-47
2022/01/27 10:03:04;;;;;;;31.23;5.93;;;;;;;6.89;100.00;100934.56;4935082;29;20182;-46
2022/01/27 10:05:31;;;;;;;29.17;5.88;;;;;;;6.88;100.00;100938.13;4935007;29;20306;-42
2022/01/27 10:08:06;;;;;;;26.73;6.13;;;;;;;6.97;100.00;100945.91;4935037;29;20711;-41
2022/01/27 10:10:37;;;;;;;31.85;6.10;;;;;;;6.97;100.00;100948.56;4933969;29;20529;-45
2022/01/27 10:13:05;;;;;;;30.42;5.72;;;;;;;6.92;100.00;100945.16;4935218;29;20190;-40
2022/01/27 10:15:40;;;;;;;27.33;5.97;;;;;;;6.96;99.58;100950.38;4933463;29;20175;-41
2022/01/27 10:18:10;;;;;;;28.92;5.85;;;;;;;6.97;100.00;100946.78;4934908;29;20637;-42
2022/01/27 10:21:00;;;;;;;36.40;5.95;;;;;;;6.98;99.13;100956.53;4933609;29;20711;-42
2022/01/27 10:23:30;;;;;;;28.45;5.32;;;;;;;6.97;98.21;100943.25;4933023;29;20646;-43
2022/01/27 10:26:04;;;;;;;37.35;6.70;;;;;;;6.94;97.51;100949.53;4934938;29;20187;-42
2022/01/27 10:31:20;;;;;;;22.52;5.35;;;;;;;7.08;95.67;100946.56;4934958;29;20175;-41
2022/01/27 10:33:54;;;;;;;21.95;5.13;;;;;;;6.98;96.12;100948.56;4933212;29;20185;-42
2022/01/27 10:36:35;;;;;;;30.35;6.25;;;;;;;7.00;96.19;100973.38;4934932;29;20253;-42
2022/01/27 10:39:21;;;;;;;25.35;6.03;;;;;;;7.07;95.61;100949.28;4933495;29;20182;-42
2022/01/27 10:42:05;;;;;;;27.02;6.03;;;;;;;7.12;95.29;100955.38;4934207;29;20310;-41
2022/01/27 10:44:44;;;;;;;28.73;6.03;;;;;;;7.06;94.68;100950.16;4933768;29;20191;-42
2022/01/27 10:47:22;;;;;;;32.03;5.22;;;;;;;7.10;94.76;100962.50;4934686;29;20286;-42
2022/01/27 10:50:04;;;;;;;30.95;5.63;;;;;;;7.01;95.09;100959.13;4933042;29;20285;-41
2022/01/27 10:52:37;;;;;;;25.75;5.28;;;;;;;7.13;93.92;100965.13;4934585;29;20231;-43
2022/01/27 10:55:12;;;;;;;29.23;5.50;;;;;;;7.13;93.36;100942.03;4934356;29;20223;-43
2022/01/27 10:57:37;;;;;;;26.83;5.32;;;;;;;7.08;93.51;100935.91;4933991;29;20191;-41
2022/01/27 11:00:14;;;;;;;25.60;4.70;;;;;;;7.12;92.54;100936.72;4934393;29;20743;-41
2022/01/27 11:03:03;;;;;;;28.27;5.65;;;;;;;7.18;92.07;100937.44;4934082;29;20206;-42
2022/01/27 11:05:33;;;;;;;28.45;5.07;;;;;;;7.16;91.48;100941.06;4933922;29;20198;-42
2022/01/27 11:07:59;;;;;;;32.25;5.47;;;;;;;7.13;91.21;100942.03;4933355;29;20227;-42
2022/01/27 11:10:24;;;;;;;29.85;4.68;;;;;;;7.08;91.22;100951.00;4934137;29;20266;-42
2022/01/27 11:12:50;;;;;;;29.08;5.65;;;;;;;7.16;91.87;100931.28;4934268;29;20587;-42
2022/01/27 11:15:19;;;;;;;35.42;6.43;;;;;;;7.12;91.98;100940.25;4933891;29;20180;-42
2022/01/27 11:17:49;;;;;;;29.15;5.90;;;;;;;7.18;91.45;100942.78;4933829;29;20187;-43
2022/01/27 11:25:55;;;;;;;27.63;5.75;;;;;;;7.21;90.05;100920.50;4933374;29;20163;-40
2022/01/27 11:28:05;;;;;;;29.02;5.15;;;;;;;7.18;89.64;100933.91;4935879;29;20223;-42
2022/01/27 11:30:48;;;;;;;30.02;5.90;;;;;;;7.13;89.09;100926.03;4933969;29;20186;-47
2022/01/27 11:33:15;;;;;;;25.25;4.47;;;;;;;7.16;88.71;100914.44;4933928;29;20176;-44
2022/01/27 11:35:41;;;;;;;25.15;4.75;;;;;;;7.10;86.84;100922.53;4933447;29;20199;-43
2022/01/27 11:38:08;;;;;;;24.13;4.60;;;;;;;7.12;86.16;100915.41;4934180;29;20282;-43
2022/01/27 11:40:44;;;;;;;29.17;4.90;;;;;;;7.15;86.67;100912.66;4933583;29;20233;-43
2022/01/27 11:43:17;;;;;;;29.40;6.28;;;;;;;7.20;86.93;100913.44;4934016;29;20187;-41
2022/01/27 11:45:43;;;;;;;28.20;5.20;;;;;;;7.21;87.44;100916.09;4933782;29;20187;-43
2022/01/27 11:48:15;;;;;;;31.77;5.72;;;;;;;7.23;88.23;100892.91;4933665;29;20772;-42
2022/01/27 11:50:54;;;;;;;27.17;5.35;;;;;;;7.26;86.58;100904.41;4934056;29;20687;-41
2022/01/27 11:53:43;;;;;;;33.42;5.25;;;;;;;7.23;85.90;100906.25;4933602;29;20171;-42
2022/01/27 11:56:23;;;;;;;31.15;5.50;;;;;;;7.10;85.68;100898.56;4933651;29;20171;-42
2022/01/27 11:59:07;;;;;;;23.83;4.75;;;;;;;7.10;85.21;100907.44;4933455;29;20164;-42
2022/01/27 12:01:37;;;;;;;22.05;4.30;;;;;;;7.26;84.72;100880.44;4933892;29;20199;-42
2022/01/27 12:04:02;;;;;;;23.33;4.07;;;;;;;7.15;84.53;100884.25;4933348;29;20175;-44